createdAt,value
2018-06-01T00:01:45.888Z,13.37
2018-06-01T00:04:12.596Z,13.50
2018-06-01T00:06:39.226Z,14.43
2018-06-01T00:09:06.054Z,17.13
2018-06-01T00:11:32.698Z,17.60
2018-06-01T00:13:59.380Z,17.60
2018-06-01T00:16:26.015Z,18.53
2018-06-01T00:18:52.636Z,17.73
2018-06-01T00:21:19.348Z,18.40
2018-06-01T00:23:46.098Z,19.23
2018-06-01T00:26:12.734Z,17.90
2018-06-01T00:28:39.384Z,17.83
2018-06-01T00:31:06.166Z,18.10
2018-06-01T00:33:32.842Z,19.13
2018-06-01T00:35:59.685Z,19.80
2018-06-01T00:38:26.358Z,17.57
2018-06-01T00:40:53.149Z,19.53
2018-06-01T00:43:20.511Z,21.87
2018-06-01T00:45:47.890Z,22.70
2018-06-01T00:48:14.648Z,20.43
2018-06-01T00:50:41.272Z,22.63
2018-06-01T00:53:07.928Z,25.80
2018-06-01T00:55:34.540Z,24.33
2018-06-01T00:58:01.260Z,25.80
2018-06-01T01:00:28.711Z,24.67
2018-06-01T01:02:56.104Z,25.87
2018-06-01T01:05:23.015Z,27.07
2018-06-01T01:07:50.420Z,26.47
2018-06-01T01:10:17.074Z,27.53
2018-06-01T01:12:43.836Z,27.73
2018-06-01T01:15:10.545Z,26.33
2018-06-01T01:17:37.165Z,26.07
2018-06-01T01:20:03.817Z,25.87
2018-06-01T01:22:30.443Z,26.43
2018-06-01T01:24:57.089Z,29.40
2018-06-01T01:27:23.726Z,28.07
2018-06-01T01:29:50.394Z,30.57
2018-06-01T01:32:17.155Z,30.77
2018-06-01T01:34:44.007Z,29.07
2018-06-01T01:37:11.553Z,32.33
2018-06-01T01:39:38.168Z,30.30
2018-06-01T01:42:04.820Z,33.13
2018-06-01T01:44:31.463Z,35.43
2018-06-01T01:46:59.620Z,33.63
2018-06-01T01:49:26.271Z,33.50
2018-06-01T01:51:52.948Z,32.60
2018-06-01T01:54:20.312Z,34.90
2018-06-01T01:56:46.969Z,32.10
2018-06-01T01:59:13.656Z,32.87
2018-06-01T02:01:40.312Z,32.80
2018-06-01T02:04:07.678Z,34.27
2018-06-01T02:06:35.044Z,32.07
2018-06-01T02:09:01.706Z,35.23
2018-06-01T02:11:28.389Z,34.47
2018-06-01T02:13:55.091Z,33.27
2018-06-01T02:16:21.857Z,33.30
2018-06-01T02:18:48.512Z,32.93
2018-06-01T02:21:15.205Z,33.67
2018-06-01T02:23:41.870Z,33.97
2018-06-01T02:26:08.512Z,32.13
2018-06-01T02:28:35.149Z,32.30
2018-06-01T02:31:01.827Z,32.07
2018-06-01T02:33:29.298Z,32.57
2018-06-01T02:35:55.913Z,31.57
2018-06-01T02:38:23.429Z,29.83
2018-06-01T02:40:50.073Z,31.50
2018-06-01T02:43:16.801Z,32.87
2018-06-01T02:45:43.439Z,31.03
2018-06-01T02:48:10.069Z,32.13
2018-06-01T02:50:36.718Z,34.37
2018-06-01T02:53:03.321Z,31.60
2018-06-01T02:55:30.011Z,31.77
2018-06-01T02:57:56.684Z,31.90
2018-06-01T03:00:23.343Z,29.40
2018-06-01T03:02:50.011Z,31.77
2018-06-01T03:05:16.650Z,33.03
2018-06-01T03:07:43.339Z,36.33
2018-06-01T03:10:10.712Z,34.27
2018-06-01T03:12:37.498Z,34.20
2018-06-01T03:15:04.174Z,36.37
2018-06-01T03:17:31.752Z,36.07
2018-06-01T03:19:58.470Z,35.63
2018-06-01T03:22:25.860Z,36.33
2018-06-01T03:24:52.546Z,36.97
2018-06-01T03:27:19.209Z,37.67
2018-06-01T03:29:46.612Z,37.27
2018-06-01T03:32:13.261Z,36.70
2018-06-01T03:34:39.881Z,33.93
2018-06-01T03:37:06.541Z,38.60
2018-06-01T03:39:33.247Z,39.53
2018-06-01T03:42:00.079Z,40.47
2018-06-01T03:44:27.512Z,38.57
2018-06-01T03:46:54.131Z,32.70
2018-06-01T03:49:20.801Z,36.93
2018-06-01T03:51:48.177Z,34.90
2018-06-01T03:54:14.822Z,36.90
2018-06-01T03:56:41.470Z,38.60
2018-06-01T03:59:08.110Z,38.73
2018-06-01T04:01:34.792Z,41.23
2018-06-01T04:04:02.953Z,43.87
2018-06-01T04:06:29.610Z,43.67
2018-06-01T04:08:56.255Z,43.10
2018-06-01T04:11:22.887Z,42.70
2018-06-01T04:13:49.574Z,42.23
2018-06-01T04:16:16.196Z,42.50
2018-06-01T04:18:43.626Z,42.70
2018-06-01T04:23:35.426Z,42.47
2018-06-01T04:26:02.051Z,41.03
2018-06-01T04:28:28.754Z,41.83
2018-06-01T04:30:55.384Z,40.77
2018-06-01T04:33:22.353Z,42.90
2018-06-01T04:35:50.715Z,41.77
2018-06-01T04:38:17.480Z,41.90
2018-06-01T04:40:44.125Z,41.00
2018-06-01T04:43:10.799Z,42.23
2018-06-01T04:45:37.653Z,40.53
2018-06-01T04:48:04.280Z,40.93
2018-06-01T04:50:31.011Z,41.17
2018-06-01T04:52:58.448Z,41.23
2018-06-01T04:55:25.138Z,41.03
2018-06-01T04:57:52.013Z,38.83
2018-06-01T05:00:19.397Z,38.73
2018-06-01T05:02:46.220Z,37.63
2018-06-01T05:05:12.878Z,39.30
2018-06-01T05:07:39.550Z,34.80
2018-06-01T05:10:06.240Z,35.50
2018-06-01T05:12:32.858Z,34.37
2018-06-01T05:15:00.258Z,32.40
2018-06-01T05:17:26.899Z,37.53
2018-06-01T05:19:53.575Z,35.73
2018-06-01T05:22:20.219Z,34.17
2018-06-01T05:24:46.907Z,34.97
2018-06-01T05:27:13.542Z,34.47
2018-06-01T05:29:40.395Z,37.03
2018-06-01T05:32:07.176Z,36.73
2018-06-01T05:34:33.858Z,37.87
2018-06-01T05:37:00.528Z,36.80
2018-06-01T05:39:27.167Z,38.93
2018-06-01T05:41:53.900Z,39.47
2018-06-01T05:44:20.558Z,38.67
2018-06-01T05:46:47.273Z,39.40
2018-06-01T05:49:13.930Z,42.53
2018-06-01T05:51:40.621Z,42.53
2018-06-01T05:54:07.987Z,43.90
2018-06-01T05:56:34.607Z,43.53
2018-06-01T05:59:02.185Z,42.33
2018-06-01T06:01:29.003Z,44.77
2018-06-01T06:03:56.380Z,45.23
2018-06-01T06:06:23.777Z,46.00
2018-06-01T06:08:50.415Z,49.43
2018-06-01T06:11:17.065Z,53.60
2018-06-01T06:13:43.729Z,54.43
2018-06-01T06:16:11.113Z,53.67
2018-06-01T06:18:37.795Z,54.87
2018-06-01T06:21:04.482Z,54.77
2018-06-01T06:23:31.855Z,55.00
2018-06-01T06:25:58.510Z,52.33
2018-06-01T06:28:25.290Z,49.80
2018-06-01T06:30:51.965Z,49.90
2018-06-01T06:33:19.368Z,54.13
2018-06-01T06:35:46.150Z,51.23
2018-06-01T06:38:12.842Z,50.40
2018-06-01T06:40:39.481Z,47.07
2018-06-01T06:43:06.152Z,49.70
2018-06-01T06:45:32.833Z,49.20
2018-06-01T06:47:59.469Z,47.53
2018-06-01T06:50:26.211Z,47.70
2018-06-01T06:52:52.857Z,48.73
2018-06-01T06:55:19.527Z,47.63
2018-06-01T06:57:46.339Z,50.77
2018-06-01T07:00:13.002Z,51.03
2018-06-01T07:02:40.542Z,48.63
2018-06-01T07:05:07.939Z,47.87
2018-06-01T07:07:34.649Z,41.00
2018-06-01T07:10:01.304Z,48.53
2018-06-01T07:12:27.937Z,45.70
2018-06-01T07:14:54.589Z,45.23
2018-06-01T07:17:22.122Z,48.17
2018-06-01T07:19:48.778Z,54.17
2018-06-01T07:22:15.446Z,52.23
2018-06-01T07:24:42.098Z,47.47
2018-06-01T07:27:08.758Z,45.60
2018-06-01T07:29:35.423Z,50.17
2018-06-01T07:32:02.068Z,51.23
2018-06-01T07:34:28.830Z,53.60
2018-06-01T07:36:55.507Z,53.97
2018-06-01T07:39:22.152Z,53.80
2018-06-01T07:41:48.847Z,53.03
2018-06-01T07:44:15.734Z,55.03
2018-06-01T07:46:42.358Z,54.10
2018-06-01T07:49:09.107Z,54.47
2018-06-01T07:51:35.761Z,55.57
2018-06-01T07:54:02.562Z,57.07
2018-06-01T07:56:29.981Z,58.97
2018-06-01T07:58:56.656Z,55.97
2018-06-01T08:01:23.317Z,53.20
2018-06-01T08:03:50.725Z,42.77
2018-06-01T08:06:17.408Z,37.37
2018-06-01T08:08:44.758Z,36.67
2018-06-01T08:11:14.177Z,37.03
2018-06-01T08:13:40.854Z,38.97
2018-06-01T08:16:07.513Z,37.07
2018-06-01T08:18:35.047Z,37.33
2018-06-01T08:21:01.699Z,38.83
2018-06-01T08:23:28.356Z,37.43
2018-06-01T08:25:55.063Z,38.70
2018-06-01T08:28:21.702Z,37.20
2018-06-01T08:30:48.358Z,37.87
2018-06-01T08:33:15.087Z,34.40
2018-06-01T08:35:41.752Z,35.80
2018-06-01T08:38:08.453Z,33.43
2018-06-01T08:40:35.206Z,34.27
2018-06-01T08:43:01.860Z,35.10
2018-06-01T08:45:28.639Z,33.20
2018-06-01T08:47:56.044Z,34.43
2018-06-01T08:50:22.714Z,37.10
2018-06-01T08:52:49.367Z,33.57
2018-06-01T08:55:16.767Z,33.30
2018-06-01T08:57:43.483Z,34.03
2018-06-01T09:00:10.121Z,31.57
2018-06-01T09:02:36.813Z,28.60
2018-06-01T09:05:03.476Z,27.10
2018-06-01T09:07:30.933Z,28.20
2018-06-01T09:09:58.344Z,27.97
2018-06-01T09:12:25.029Z,26.03
2018-06-01T09:14:52.673Z,24.77
2018-06-01T09:17:19.379Z,23.47
2018-06-01T09:19:46.044Z,23.73
2018-06-01T09:22:12.791Z,22.77
2018-06-01T09:24:39.466Z,22.13
2018-06-01T09:27:06.867Z,23.67
2018-06-01T09:29:33.537Z,22.77
2018-06-01T09:32:00.204Z,22.87
2018-06-01T09:34:27.803Z,21.43
2018-06-01T09:36:54.452Z,24.53
2018-06-01T09:39:21.136Z,26.27
2018-06-01T09:41:47.843Z,25.07
2018-06-01T09:44:16.482Z,23.87
2018-06-01T09:46:43.182Z,20.37
2018-06-01T09:49:09.822Z,23.57
2018-06-01T09:51:36.517Z,25.07
2018-06-01T09:54:03.176Z,25.83
2018-06-01T09:56:29.862Z,24.53
2018-06-01T09:58:57.237Z,27.10
2018-06-01T10:01:27.948Z,26.10
2018-06-01T10:03:56.172Z,27.10
2018-06-01T10:06:22.884Z,27.13
2018-06-01T10:08:49.747Z,27.10
2018-06-01T10:11:16.543Z,26.77
2018-06-01T10:13:43.953Z,22.70
2018-06-01T10:16:10.607Z,21.37
2018-06-01T10:18:37.327Z,24.73
2018-06-01T10:21:03.949Z,25.77
2018-06-01T10:23:30.675Z,23.53
2018-06-01T10:25:58.200Z,23.70
2018-06-01T10:28:24.897Z,20.37
2018-06-01T10:30:51.555Z,16.33
2018-06-01T10:33:18.425Z,17.00
2018-06-01T10:35:46.552Z,16.43
2018-06-01T10:38:13.408Z,15.67
2018-06-01T10:40:40.070Z,17.40
2018-06-01T10:43:06.852Z,19.70
2018-06-01T10:45:34.316Z,18.80
2018-06-01T10:48:01.173Z,18.20
2018-06-01T10:50:27.785Z,19.23
2018-06-01T10:52:55.199Z,14.20
2018-06-01T10:55:21.886Z,16.37
2018-06-01T10:57:49.308Z,13.77
2018-06-01T11:00:16.022Z,12.57
2018-06-01T11:02:42.703Z,11.97
2018-06-01T11:05:10.121Z,13.13
2018-06-01T11:07:36.848Z,12.83
2018-06-01T11:10:03.526Z,11.83
2018-06-01T11:12:30.285Z,10.20
2018-06-01T11:14:57.731Z,9.13
2018-06-01T11:17:25.120Z,8.50
2018-06-01T11:19:51.960Z,9.00
2018-06-01T11:22:18.605Z,7.60
2018-06-01T11:24:45.250Z,7.67
2018-06-01T11:27:11.897Z,8.63
2018-06-01T11:29:38.570Z,10.33
2018-06-01T11:32:05.385Z,8.17
2018-06-01T11:34:32.053Z,10.00
2018-06-01T11:36:58.729Z,10.40
2018-06-01T11:39:26.139Z,8.90
2018-06-01T11:41:52.807Z,7.83
2018-06-01T11:44:20.236Z,8.33
2018-06-01T11:46:46.873Z,8.13
2018-06-01T11:49:13.551Z,8.57
2018-06-01T11:51:41.079Z,10.93
2018-06-01T11:54:07.798Z,12.93
2018-06-01T11:56:34.441Z,12.67
2018-06-01T11:59:01.106Z,15.47
2018-06-01T12:01:27.769Z,16.70
2018-06-01T12:03:55.200Z,18.80
2018-06-01T12:06:21.926Z,18.80
2018-06-01T12:08:48.672Z,20.17
2018-06-01T12:11:15.342Z,19.70
2018-06-01T12:13:42.009Z,20.50
2018-06-01T12:16:08.658Z,17.87
2018-06-01T12:18:35.376Z,18.53
2018-06-01T12:21:02.038Z,19.97
2018-06-01T12:23:28.706Z,18.83
2018-06-01T12:25:55.412Z,18.77
2018-06-01T12:28:22.103Z,27.20
2018-06-01T12:30:48.747Z,31.80
2018-06-01T12:33:15.437Z,28.70
2018-06-01T12:35:42.139Z,25.73
2018-06-01T12:38:09.537Z,24.63
2018-06-01T12:40:36.172Z,24.73
2018-06-01T12:43:02.820Z,30.83
2018-06-01T12:45:30.481Z,33.57
2018-06-01T12:47:57.372Z,37.77
2018-06-01T12:50:25.030Z,38.27
2018-06-01T12:52:51.729Z,38.43
2018-06-01T12:55:18.390Z,38.27
2018-06-01T12:57:45.123Z,39.80
2018-06-01T13:00:11.933Z,39.93
2018-06-01T13:02:38.858Z,42.87
2018-06-01T13:05:06.582Z,41.27
2018-06-01T13:07:33.249Z,39.83
2018-06-01T13:10:00.693Z,36.50
2018-06-01T13:12:27.343Z,35.83
2018-06-01T13:14:54.745Z,35.60
2018-06-01T13:17:21.462Z,34.27
2018-06-01T13:19:48.082Z,38.00
2018-06-01T13:22:15.504Z,39.73
2018-06-01T13:24:42.250Z,40.50
2018-06-01T13:27:08.921Z,40.03
2018-06-01T13:29:36.311Z,37.13
2018-06-01T13:32:02.947Z,42.40
2018-06-01T13:34:29.614Z,40.40
2018-06-01T13:36:56.273Z,40.23
2018-06-01T13:39:22.985Z,40.47
2018-06-01T13:41:49.620Z,43.00
2018-06-01T13:44:16.363Z,41.80
2018-06-01T13:46:43.055Z,43.50
2018-06-01T13:49:09.750Z,45.30
2018-06-01T13:51:36.429Z,45.17
2018-06-01T13:54:03.836Z,40.77
2018-06-01T13:56:30.489Z,39.30
2018-06-01T14:01:30.607Z,42.23
2018-06-01T14:03:57.301Z,41.60
2018-06-01T14:06:24.818Z,45.27
2018-06-01T14:08:51.600Z,52.87
2018-06-01T14:11:19.048Z,50.87
2018-06-01T14:13:45.734Z,48.70
2018-06-01T14:16:12.421Z,48.63
2018-06-01T14:18:39.200Z,48.03
2018-06-01T14:21:06.736Z,47.37
2018-06-01T14:23:33.393Z,49.50
2018-06-01T14:26:00.757Z,50.80
2018-06-01T14:28:27.387Z,51.87
2018-06-01T14:30:54.761Z,48.37
2018-06-01T14:33:21.486Z,45.47
2018-06-01T14:35:48.935Z,53.57
2018-06-01T14:38:16.389Z,48.40
2018-06-01T14:40:43.819Z,53.60
2018-06-01T14:43:10.460Z,51.17
2018-06-01T14:45:37.068Z,47.80
2018-06-01T14:48:03.701Z,49.73
2018-06-01T14:50:30.328Z,49.57
2018-06-01T14:52:57.042Z,46.70
2018-06-01T14:55:24.410Z,49.23
2018-06-01T14:57:51.043Z,49.30
2018-06-01T15:00:17.692Z,58.97
2018-06-01T15:02:44.328Z,56.67
2018-06-01T15:05:10.968Z,55.80
2018-06-01T15:07:37.714Z,55.70
2018-06-01T15:10:04.408Z,50.60
2018-06-01T15:12:31.074Z,52.83
2018-06-01T15:14:58.426Z,50.77
2018-06-01T15:17:25.788Z,52.73
2018-06-01T15:19:52.445Z,50.90
2018-06-01T15:22:19.091Z,50.20
2018-06-01T15:24:46.672Z,51.93
2018-06-01T15:27:13.340Z,52.33
2018-06-01T15:29:40.892Z,53.50
2018-06-01T15:32:07.683Z,52.60
2018-06-01T15:34:34.371Z,52.00
2018-06-01T15:37:01.015Z,51.67
2018-06-01T15:39:27.658Z,51.57
2018-06-01T15:41:54.373Z,49.93
2018-06-01T15:44:20.990Z,48.87
2018-06-01T15:46:47.669Z,47.07
2018-06-01T15:49:15.061Z,51.23
2018-06-01T15:51:41.678Z,50.20
2018-06-01T15:54:09.221Z,51.73
2018-06-01T15:56:35.893Z,52.13
2018-06-01T15:59:03.241Z,50.43
2018-06-01T16:01:30.634Z,52.17
2018-06-01T16:03:57.271Z,49.57
2018-06-01T16:06:23.971Z,52.53
2018-06-01T16:08:51.543Z,53.77
2018-06-01T16:11:18.922Z,52.33
2018-06-01T16:13:45.599Z,50.93
2018-06-01T16:16:12.596Z,50.80
2018-06-01T16:18:39.249Z,53.10
2018-06-01T16:21:05.892Z,55.23
2018-06-01T16:23:32.525Z,53.03
2018-06-01T16:25:59.200Z,55.50
2018-06-01T16:28:26.636Z,51.63
2018-06-01T16:30:53.458Z,53.47
2018-06-01T16:33:20.130Z,54.17
2018-06-01T16:35:46.773Z,52.63
2018-06-01T16:38:13.409Z,52.87
2018-06-01T16:40:40.088Z,51.97
2018-06-01T16:43:07.448Z,53.50
2018-06-01T16:45:34.822Z,61.30
2018-06-01T16:48:01.467Z,61.90
2018-06-01T16:50:28.027Z,58.83
2018-06-01T16:52:54.700Z,54.90
2018-06-01T16:55:22.060Z,51.97
2018-06-01T16:57:49.413Z,51.80
2018-06-01T17:00:16.804Z,54.43
2018-06-01T17:02:43.487Z,52.37
2018-06-01T17:05:10.143Z,50.03
2018-06-01T17:07:37.473Z,50.77
2018-06-01T17:10:04.221Z,47.67
2018-06-01T17:12:30.987Z,48.13
2018-06-01T17:14:58.452Z,50.50
2018-06-01T17:17:25.800Z,45.90
2018-06-01T17:19:53.154Z,47.50
2018-06-01T17:22:20.520Z,44.40
2018-06-01T17:24:47.909Z,43.90
2018-06-01T17:27:14.536Z,42.70
2018-06-01T17:29:41.183Z,45.20
2018-06-01T17:32:07.842Z,41.50
2018-06-01T17:34:34.468Z,43.20
2018-06-01T17:37:01.072Z,45.80
2018-06-01T17:39:28.435Z,43.10
2018-06-01T17:41:55.113Z,43.50
2018-06-01T17:44:21.727Z,39.93
2018-06-01T17:46:48.386Z,40.63
2018-06-01T17:49:15.141Z,38.80
2018-06-01T17:51:41.817Z,40.47
2018-06-01T17:54:09.189Z,34.90
2018-06-01T17:56:42.904Z,37.07
2018-06-01T17:59:09.667Z,37.77
2018-06-01T18:01:36.317Z,39.27
2018-06-01T18:04:02.934Z,41.30
2018-06-01T18:06:29.609Z,38.67
2018-06-01T18:08:56.315Z,33.23
2018-06-01T18:11:22.967Z,30.60
2018-06-01T18:13:49.572Z,30.63
2018-06-01T18:16:16.257Z,30.37
2018-06-01T18:18:42.867Z,29.17
2018-06-01T18:21:09.472Z,30.03
2018-06-01T18:23:36.821Z,29.17
2018-06-01T18:26:04.194Z,27.80
2018-06-01T18:28:30.872Z,27.80
2018-06-01T18:30:57.513Z,27.00
2018-06-01T18:33:24.100Z,27.00
2018-06-01T18:35:51.462Z,27.70
2018-06-01T18:38:18.118Z,25.37
2018-06-01T18:40:44.720Z,25.93
2018-06-01T18:43:12.139Z,24.53
2018-06-01T18:45:38.829Z,24.13
2018-06-01T18:48:06.390Z,25.03
2018-06-01T18:50:32.987Z,22.67
2018-06-01T18:52:59.616Z,23.97
2018-06-01T18:55:26.432Z,23.27
2018-06-01T18:57:53.078Z,22.43
2018-06-01T19:00:19.804Z,22.37
2018-06-01T19:02:46.419Z,23.17
2018-06-01T19:05:13.793Z,21.33
2018-06-01T19:07:40.443Z,21.23
2018-06-01T19:10:07.182Z,19.60
2018-06-01T19:12:33.795Z,20.67
2018-06-01T19:15:01.179Z,20.40
2018-06-01T19:17:27.841Z,19.17
2018-06-01T19:19:54.633Z,18.43
2018-06-01T19:22:22.014Z,20.80
2018-06-01T19:24:48.637Z,19.83
2018-06-01T19:27:15.462Z,20.50
2018-06-01T19:29:42.838Z,20.13
2018-06-01T19:32:09.437Z,20.73
2018-06-01T19:34:36.117Z,20.07
2018-06-01T19:37:02.764Z,21.53
2018-06-01T19:39:29.400Z,21.33
2018-06-01T19:41:56.090Z,20.30
2018-06-01T19:44:22.751Z,21.50
2018-06-01T19:46:50.097Z,22.23
2018-06-01T19:49:16.719Z,22.73
2018-06-01T19:51:43.306Z,22.93
2018-06-01T19:54:09.956Z,23.23
2018-06-01T19:56:36.637Z,23.57
2018-06-01T19:59:03.306Z,26.03
2018-06-01T20:01:30.020Z,24.63
2018-06-01T20:03:56.713Z,26.90
2018-06-01T20:06:23.370Z,25.27
2018-06-01T20:08:49.995Z,27.33
2018-06-01T20:11:16.621Z,29.17
2018-06-01T20:13:43.396Z,29.57
2018-06-01T20:16:10.119Z,30.83
2018-06-01T20:18:36.731Z,29.93
2018-06-01T20:21:03.425Z,29.07
2018-06-01T20:23:30.066Z,28.20
2018-06-01T20:25:58.247Z,29.73
2018-06-01T20:28:26.342Z,31.73
2018-06-01T20:30:53.711Z,31.67
2018-06-01T20:33:20.540Z,32.90
2018-06-01T20:35:48.086Z,31.27
2018-06-01T20:38:14.762Z,32.13
2018-06-01T20:40:41.422Z,31.83
2018-06-01T20:43:08.125Z,30.43
2018-06-01T20:45:34.837Z,31.47
2018-06-01T20:48:01.668Z,30.00
2018-06-01T20:50:28.296Z,29.40
2018-06-01T20:52:54.915Z,29.43
2018-06-01T20:55:21.597Z,32.13
2018-06-01T20:57:48.237Z,29.93
2018-06-01T21:00:14.829Z,30.27
2018-06-01T21:02:41.452Z,30.40
2018-06-01T21:05:08.091Z,31.10
2018-06-01T21:07:34.706Z,31.77
2018-06-01T21:10:02.085Z,30.97
2018-06-01T21:12:28.842Z,30.10
2018-06-01T21:14:55.524Z,31.13
2018-06-01T21:17:22.152Z,30.73
2018-06-01T21:19:48.787Z,28.80
2018-06-01T21:22:15.432Z,26.30
2018-06-01T21:24:42.051Z,29.87
2018-06-01T21:27:09.149Z,31.00
2018-06-01T21:29:36.475Z,28.80
2018-06-01T21:32:03.288Z,28.87
2018-06-01T21:34:29.908Z,29.20
2018-06-01T21:36:56.507Z,30.93
2018-06-01T21:39:23.852Z,31.40
2018-06-01T21:41:51.209Z,31.07
2018-06-01T21:44:17.863Z,32.87
2018-06-01T21:46:45.208Z,29.03
2018-06-01T21:49:11.834Z,30.03
2018-06-01T21:51:38.545Z,31.20
2018-06-01T21:54:05.182Z,30.90
2018-06-01T21:56:31.848Z,30.83
2018-06-01T21:58:58.655Z,31.73
2018-06-01T22:01:25.279Z,32.77
2018-06-01T22:03:51.930Z,31.33
2018-06-01T22:06:18.567Z,31.13
2018-06-01T22:08:45.179Z,31.23
2018-06-01T22:11:12.562Z,29.27
2018-06-01T22:13:39.264Z,32.03
2018-06-01T22:16:06.805Z,33.47
2018-06-01T22:18:34.177Z,32.90
2018-06-01T22:21:01.527Z,32.13
2018-06-01T22:23:28.394Z,33.80
2018-06-01T22:25:55.015Z,31.70
2018-06-01T22:28:22.429Z,35.53
2018-06-01T22:30:49.173Z,32.23
2018-06-01T22:33:15.769Z,32.43
2018-06-01T22:35:42.410Z,29.30
2018-06-01T22:38:09.110Z,33.07
2018-06-01T22:40:35.795Z,30.70
2018-06-01T22:43:02.413Z,30.27
2018-06-01T22:45:29.787Z,31.70
2018-06-01T22:47:56.376Z,29.17
2018-06-01T22:50:22.999Z,30.33
2018-06-01T22:52:49.722Z,30.13
2018-06-01T22:55:17.127Z,29.73
2018-06-01T22:57:43.716Z,29.03
2018-06-01T23:00:10.381Z,29.40
2018-06-01T23:02:37.040Z,30.10
2018-06-01T23:05:03.631Z,32.17
2018-06-01T23:07:30.419Z,31.40
2018-06-01T23:09:57.029Z,29.10
2018-06-01T23:12:23.667Z,29.97
2018-06-01T23:14:50.245Z,27.40
2018-06-01T23:17:17.612Z,30.63
2018-06-01T23:19:44.979Z,28.77
2018-06-01T23:22:11.596Z,29.13
2018-06-01T23:24:38.954Z,30.87
2018-06-01T23:27:06.297Z,32.27
2018-06-01T23:29:33.750Z,30.23
2018-06-01T23:32:00.417Z,30.00
2018-06-01T23:34:27.086Z,31.13
2018-06-01T23:36:53.688Z,31.63
2018-06-01T23:39:21.112Z,29.13
2018-06-01T23:41:47.725Z,28.70
2018-06-01T23:44:14.384Z,29.37
2018-06-01T23:46:41.029Z,28.97
2018-06-01T23:49:07.757Z,30.20
2018-06-01T23:51:34.432Z,29.13
2018-06-01T23:54:01.828Z,30.67
2018-06-01T23:56:28.441Z,30.43
2018-06-01T23:58:55.154Z,28.93
